Airfield :
LOGIN :

Register | Disclaimer

   EN    FR    IT 

 










Legend :    VFR   Marginal VFR   IFR   Intensive IFR   Very Intensive IFR
Visi :
Ceiling :
>= 8 km
>= 3000ft
5 to 8 km
1000 to 3000 ft
1500m to 5 km
500 to 1000 ft
800 to 1500m
200 to 500 ft
< 800m
< 200 ft
Symbols :   Thunderstorms  Fog  Heavy snow  Heavy precipitations  Wind > 20 kt
SIGMETs :     Misc.  Thunderstorms  Icing  Turbulence  Mountain Waves  Volcanic Ashes






- Airport Elevation : 90 ft
- IATA code : NTE


LFRS - Nantes

CURRENT METAR :
  • 110300Z AUTO VRB02KT 9999 -RA ///TCU 08/08 Q1014 TEMPO SCT012 BKN030

EXPIRED METARs :
  • 110230Z AUTO 32005KT 9999 -RA SCT036/// OVC043/// ///TCU 08/08 Q1014 TEMPO SCT012 BKN030
  • 110200Z AUTO 32008KT 9999 RA BKN027/// BKN033/// OVC039/// ///TCU 09/08 Q1014 BECMG NSW SCT012 BKN030
  • 110130Z AUTO 33007KT 9999 RA FEW009/// OVC021/// ///CB 09/08 Q1014 BECMG NSW SCT012 BKN030
  • 110100Z AUTO 28009KT 210V330 4900 +RA BR OVC004/// ///TCU 11/11 Q1014 BECMG 9999 NSW SCT012 BKN030
  • 110030Z AUTO 20010KT 7000 -RADZ OVC005/// ///TCU 11/11 Q1014 BECMG 30008KT SCT012 BKN030

TAF TAF LFRS
Valid from the 11 at 00:00 until the 12 at 06:00 UTC


102300Z 1100/1206 22015G25KT 4500 -RA BKN008
BECMG 1101/1103 30008KT 9999 NSW SCT012 BKN030
TEMPO 1104/1111 -SHRA BKN030TCU
BECMG 1111/1112 24015G25KT
TEMPO 1112/1117 25020G35KT 2500 TSRAGS BKN008 BKN015CB
BECMG 1122/1124 20005KT
BECMG 1203/1206 4500 -RA BKN015
ATIS : +33 2 40 05 12 74



MET'MAP, your aeronautical weather chart ! - Copyright ORBIFLY December 2007 - Disclaimer

ORBIFLY MET'MAP TEAM :

Programming & Development : Alexandra Zaïnal
Concept & original design : Baudouin d'Aumeries
Assistance for programming : Marc-Olivier Méhu
Technical & hardware support : Manuel Goepfert

Contact : metmap@orbifly.com




SOURCES & CREDITS :

   NOAA